sensor_id;sensor_type;location;lat;lon;timestamp;P1;durP1;ratioP1;P2;durP2;ratioP2
3349;SDS011;1688;51.000;13.684;2023-07-20T00:02:17;6.37;;;4.13;;
3349;SDS011;1688;51.000;13.684;2023-07-20T00:04:50;4.77;;;3.40;;
3349;SDS011;1688;51.000;13.684;2023-07-20T00:07:23;5.30;;;4.40;;
3349;SDS011;1688;51.000;13.684;2023-07-20T00:09:57;3.93;;;3.53;;
3349;SDS011;1688;51.000;13.684;2023-07-20T00:12:30;4.83;;;3.80;;
3349;SDS011;1688;51.000;13.684;2023-07-20T00:15:04;8.00;;;3.70;;
3349;SDS011;1688;51.000;13.684;2023-07-20T00:17:37;5.50;;;2.97;;
3349;SDS011;1688;51.000;13.684;2023-07-20T00:20:12;4.60;;;3.33;;
3349;SDS011;1688;51.000;13.684;2023-07-20T00:22:45;3.00;;;2.47;;
3349;SDS011;1688;51.000;13.684;2023-07-20T00:25:19;2.63;;;2.43;;
3349;SDS011;1688;51.000;13.684;2023-07-20T00:27:52;6.60;;;2.90;;
3349;SDS011;1688;51.000;13.684;2023-07-20T00:30:25;2.57;;;2.37;;
3349;SDS011;1688;51.000;13.684;2023-07-20T00:32:59;2.57;;;1.93;;
3349;SDS011;1688;51.000;13.684;2023-07-20T00:35:32;5.70;;;2.50;;
3349;SDS011;1688;51.000;13.684;2023-07-20T00:38:05;2.50;;;2.30;;
3349;SDS011;1688;51.000;13.684;2023-07-20T00:40:39;2.63;;;2.23;;
3349;SDS011;1688;51.000;13.684;2023-07-20T00:43:12;3.33;;;2.50;;
3349;SDS011;1688;51.000;13.684;2023-07-20T00:45:46;2.40;;;1.60;;
3349;SDS011;1688;51.000;13.684;2023-07-20T00:48:19;5.03;;;2.70;;
3349;SDS011;1688;51.000;13.684;2023-07-20T00:50:52;1.57;;;1.47;;
3349;SDS011;1688;51.000;13.684;2023-07-20T00:53:26;1.57;;;1.43;;
3349;SDS011;1688;51.000;13.684;2023-07-20T00:55:59;3.00;;;2.23;;
3349;SDS011;1688;51.000;13.684;2023-07-20T00:58:32;4.30;;;2.57;;
3349;SDS011;1688;51.000;13.684;2023-07-20T01:01:06;3.33;;;2.37;;
3349;SDS011;1688;51.000;13.684;2023-07-20T01:03:41;2.60;;;2.23;;
3349;SDS011;1688;51.000;13.684;2023-07-20T01:09:01;3.07;;;2.77;;
3349;SDS011;1688;51.000;13.684;2023-07-20T01:11:39;3.67;;;3.03;;
3349;SDS011;1688;51.000;13.684;2023-07-20T01:14:15;3.00;;;2.80;;
3349;SDS011;1688;51.000;13.684;2023-07-20T01:16:49;3.60;;;3.20;;
3349;SDS011;1688;51.000;13.684;2023-07-20T01:19:24;4.10;;;3.47;;
3349;SDS011;1688;51.000;13.684;2023-07-20T01:32:59;5.30;;;2.70;;
3349;SDS011;1688;51.000;13.684;2023-07-20T01:35:33;2.97;;;2.77;;
3349;SDS011;1688;51.000;13.684;2023-07-20T01:38:07;7.57;;;3.33;;
3349;SDS011;1688;51.000;13.684;2023-07-20T01:40:41;4.00;;;3.60;;
3349;SDS011;1688;51.000;13.684;2023-07-20T01:43:14;4.57;;;3.37;;
3349;SDS011;1688;51.000;13.684;2023-07-20T01:45:47;5.67;;;3.53;;
3349;SDS011;1688;51.000;13.684;2023-07-20T01:48:21;4.30;;;3.20;;
3349;SDS011;1688;51.000;13.684;2023-07-20T01:50:54;11.93;;;4.20;;
3349;SDS011;1688;51.000;13.684;2023-07-20T01:53:27;5.83;;;3.50;;
3349;SDS011;1688;51.000;13.684;2023-07-20T01:56:01;8.37;;;4.13;;
3349;SDS011;1688;51.000;13.684;2023-07-20T01:58:34;3.97;;;3.53;;
3349;SDS011;1688;51.000;13.684;2023-07-20T02:01:07;9.07;;;4.57;;
3349;SDS011;1688;51.000;13.684;2023-07-20T02:03:40;5.83;;;3.80;;
3349;SDS011;1688;51.000;13.684;2023-07-20T02:06:14;6.50;;;3.90;;
3349;SDS011;1688;51.000;13.684;2023-07-20T02:08:47;5.50;;;4.20;;
3349;SDS011;1688;51.000;13.684;2023-07-20T02:11:20;5.17;;;3.53;;
3349;SDS011;1688;51.000;13.684;2023-07-20T02:13:53;7.03;;;3.53;;
3349;SDS011;1688;51.000;13.684;2023-07-20T02:16:27;7.67;;;4.47;;
3349;SDS011;1688;51.000;13.684;2023-07-20T02:19:00;8.10;;;4.43;;
3349;SDS011;1688;51.000;13.684;2023-07-20T02:21:33;12.07;;;5.53;;
3349;SDS011;1688;51.000;13.684;2023-07-20T02:24:06;4.80;;;4.20;;
3349;SDS011;1688;51.000;13.684;2023-07-20T02:26:40;5.00;;;2.97;;
3349;SDS011;1688;51.000;13.684;2023-07-20T02:29:13;5.33;;;4.80;;
3349;SDS011;1688;51.000;13.684;2023-07-20T02:31:47;5.30;;;4.67;;
3349;SDS011;1688;51.000;13.684;2023-07-20T02:34:20;9.57;;;5.07;;
3349;SDS011;1688;51.000;13.684;2023-07-20T02:36:54;5.50;;;4.90;;
3349;SDS011;1688;51.000;13.684;2023-07-20T02:39:33;6.47;;;5.00;;
3349;SDS011;1688;51.000;13.684;2023-07-20T02:42:06;11.90;;;4.70;;
3349;SDS011;1688;51.000;13.684;2023-07-20T02:44:39;4.77;;;3.80;;
3349;SDS011;1688;51.000;13.684;2023-07-20T02:47:12;4.40;;;4.00;;
3349;SDS011;1688;51.000;13.684;2023-07-20T02:49:46;12.10;;;4.87;;
3349;SDS011;1688;51.000;13.684;2023-07-20T02:52:19;6.83;;;5.37;;
3349;SDS011;1688;51.000;13.684;2023-07-20T02:54:54;9.57;;;7.83;;
3349;SDS011;1688;51.000;13.684;2023-07-20T02:57:27;12.47;;;7.87;;
3349;SDS011;1688;51.000;13.684;2023-07-20T03:00:01;11.83;;;9.67;;
3349;SDS011;1688;51.000;13.684;2023-07-20T03:02:36;16.70;;;7.97;;
3349;SDS011;1688;51.000;13.684;2023-07-20T03:05:09;10.53;;;7.03;;
3349;SDS011;1688;51.000;13.684;2023-07-20T03:07:42;11.27;;;6.93;;
3349;SDS011;1688;51.000;13.684;2023-07-20T03:10:17;6.40;;;5.40;;
3349;SDS011;1688;51.000;13.684;2023-07-20T03:12:50;12.23;;;6.23;;
3349;SDS011;1688;51.000;13.684;2023-07-20T03:15:23;6.53;;;5.13;;
3349;SDS011;1688;51.000;13.684;2023-07-20T03:17:56;7.10;;;5.10;;
3349;SDS011;1688;51.000;13.684;2023-07-20T03:20:31;9.63;;;4.33;;
3349;SDS011;1688;51.000;13.684;2023-07-20T03:23:04;6.80;;;5.83;;
3349;SDS011;1688;51.000;13.684;2023-07-20T03:25:37;10.10;;;4.90;;
3349;SDS011;1688;51.000;13.684;2023-07-20T03:28:11;5.67;;;4.70;;
3349;SDS011;1688;51.000;13.684;2023-07-20T03:30:44;11.30;;;5.87;;
3349;SDS011;1688;51.000;13.684;2023-07-20T03:33:17;6.17;;;4.93;;
3349;SDS011;1688;51.000;13.684;2023-07-20T03:35:51;7.57;;;4.57;;
3349;SDS011;1688;51.000;13.684;2023-07-20T03:38:25;7.03;;;5.33;;
3349;SDS011;1688;51.000;13.684;2023-07-20T03:40:59;13.77;;;4.90;;
3349;SDS011;1688;51.000;13.684;2023-07-20T03:43:32;9.93;;;6.33;;
3349;SDS011;1688;51.000;13.684;2023-07-20T03:46:05;8.53;;;5.57;;
3349;SDS011;1688;51.000;13.684;2023-07-20T03:48:39;10.90;;;5.60;;
3349;SDS011;1688;51.000;13.684;2023-07-20T03:51:13;11.17;;;5.83;;
3349;SDS011;1688;51.000;13.684;2023-07-20T03:53:46;12.87;;;5.60;;
3349;SDS011;1688;51.000;13.684;2023-07-20T03:56:19;6.50;;;4.23;;
3349;SDS011;1688;51.000;13.684;2023-07-20T03:58:53;5.43;;;4.50;;
3349;SDS011;1688;51.000;13.684;2023-07-20T04:01:26;4.90;;;4.10;;
3349;SDS011;1688;51.000;13.684;2023-07-20T04:03:59;4.53;;;4.07;;
3349;SDS011;1688;51.000;13.684;2023-07-20T04:06:33;7.20;;;5.07;;
3349;SDS011;1688;51.000;13.684;2023-07-20T04:09:06;6.83;;;4.73;;
3349;SDS011;1688;51.000;13.684;2023-07-20T04:11:40;5.93;;;4.90;;
3349;SDS011;1688;51.000;13.684;2023-07-20T04:14:13;5.10;;;4.60;;
3349;SDS011;1688;51.000;13.684;2023-07-20T04:16:47;7.77;;;5.97;;
3349;SDS011;1688;51.000;13.684;2023-07-20T04:19:20;5.47;;;4.23;;
3349;SDS011;1688;51.000;13.684;2023-07-20T04:21:53;6.43;;;5.27;;
3349;SDS011;1688;51.000;13.684;2023-07-20T04:24:27;6.73;;;5.33;;
3349;SDS011;1688;51.000;13.684;2023-07-20T04:27:00;14.37;;;5.90;;
3349;SDS011;1688;51.000;13.684;2023-07-20T04:29:33;11.83;;;5.40;;
3349;SDS011;1688;51.000;13.684;2023-07-20T04:32:07;7.63;;;5.60;;
3349;SDS011;1688;51.000;13.684;2023-07-20T04:34:40;8.20;;;5.90;;
3349;SDS011;1688;51.000;13.684;2023-07-20T04:37:13;9.87;;;6.40;;
3349;SDS011;1688;51.000;13.684;2023-07-20T04:39:47;10.97;;;6.43;;
3349;SDS011;1688;51.000;13.684;2023-07-20T04:42:20;7.80;;;6.50;;
3349;SDS011;1688;51.000;13.684;2023-07-20T04:44:54;6.77;;;5.30;;
3349;SDS011;1688;51.000;13.684;2023-07-20T04:47:27;9.93;;;6.50;;
3349;SDS011;1688;51.000;13.684;2023-07-20T04:50:01;8.83;;;6.53;;
3349;SDS011;1688;51.000;13.684;2023-07-20T04:52:34;11.23;;;7.20;;
3349;SDS011;1688;51.000;13.684;2023-07-20T04:55:14;9.57;;;6.87;;
3349;SDS011;1688;51.000;13.684;2023-07-20T04:57:47;9.53;;;6.90;;
3349;SDS011;1688;51.000;13.684;2023-07-20T05:00:21;7.63;;;6.73;;
3349;SDS011;1688;51.000;13.684;2023-07-20T05:02:54;10.17;;;6.00;;
3349;SDS011;1688;51.000;13.684;2023-07-20T05:05:28;7.20;;;5.97;;
3349;SDS011;1688;51.000;13.684;2023-07-20T05:08:01;7.40;;;5.60;;
3349;SDS011;1688;51.000;13.684;2023-07-20T05:10:34;8.90;;;7.27;;
3349;SDS011;1688;51.000;13.684;2023-07-20T05:13:07;7.30;;;6.60;;
3349;SDS011;1688;51.000;13.684;2023-07-20T05:15:41;10.87;;;6.50;;
3349;SDS011;1688;51.000;13.684;2023-07-20T05:18:14;8.20;;;6.20;;
3349;SDS011;1688;51.000;13.684;2023-07-20T05:20:52;10.67;;;6.20;;
3349;SDS011;1688;51.000;13.684;2023-07-20T05:23:27;7.77;;;6.97;;
3349;SDS011;1688;51.000;13.684;2023-07-20T05:26:00;15.23;;;5.50;;
3349;SDS011;1688;51.000;13.684;2023-07-20T05:28:34;8.67;;;5.43;;
3349;SDS011;1688;51.000;13.684;2023-07-20T05:31:08;11.37;;;5.17;;
3349;SDS011;1688;51.000;13.684;2023-07-20T05:33:41;7.87;;;5.90;;
3349;SDS011;1688;51.000;13.684;2023-07-20T05:36:15;6.80;;;5.37;;
3349;SDS011;1688;51.000;13.684;2023-07-20T05:38:48;8.50;;;5.43;;
3349;SDS011;1688;51.000;13.684;2023-07-20T05:41:22;8.90;;;5.07;;
3349;SDS011;1688;51.000;13.684;2023-07-20T05:43:55;13.50;;;5.43;;
3349;SDS011;1688;51.000;13.684;2023-07-20T05:46:28;5.17;;;4.33;;
3349;SDS011;1688;51.000;13.684;2023-07-20T05:49:18;4.37;;;3.97;;
3349;SDS011;1688;51.000;13.684;2023-07-20T05:51:51;4.87;;;4.40;;
3349;SDS011;1688;51.000;13.684;2023-07-20T05:54:24;8.63;;;4.57;;
3349;SDS011;1688;51.000;13.684;2023-07-20T05:56:58;6.50;;;4.43;;
3349;SDS011;1688;51.000;13.684;2023-07-20T05:59:31;6.20;;;3.90;;
3349;SDS011;1688;51.000;13.684;2023-07-20T06:02:05;6.67;;;3.37;;
3349;SDS011;1688;51.000;13.684;2023-07-20T06:04:40;6.00;;;5.07;;
3349;SDS011;1688;51.000;13.684;2023-07-20T06:07:13;5.37;;;4.23;;
3349;SDS011;1688;51.000;13.684;2023-07-20T06:09:47;4.30;;;3.90;;
3349;SDS011;1688;51.000;13.684;2023-07-20T06:12:20;6.90;;;5.80;;
3349;SDS011;1688;51.000;13.684;2023-07-20T06:14:53;5.77;;;4.37;;
3349;SDS011;1688;51.000;13.684;2023-07-20T06:17:27;6.83;;;5.60;;
3349;SDS011;1688;51.000;13.684;2023-07-20T06:20:01;7.30;;;5.93;;
3349;SDS011;1688;51.000;13.684;2023-07-20T06:22:34;8.33;;;4.53;;
3349;SDS011;1688;51.000;13.684;2023-07-20T06:25:08;6.50;;;4.93;;
3349;SDS011;1688;51.000;13.684;2023-07-20T06:27:42;10.67;;;5.73;;
3349;SDS011;1688;51.000;13.684;2023-07-20T06:30:16;7.23;;;4.87;;
3349;SDS011;1688;51.000;13.684;2023-07-20T06:32:51;9.10;;;5.90;;
3349;SDS011;1688;51.000;13.684;2023-07-20T06:35:25;10.93;;;4.77;;
3349;SDS011;1688;51.000;13.684;2023-07-20T06:37:58;11.70;;;4.90;;
3349;SDS011;1688;51.000;13.684;2023-07-20T06:40:52;10.57;;;4.60;;
3349;SDS011;1688;51.000;13.684;2023-07-20T06:43:29;3.93;;;3.63;;
3349;SDS011;1688;51.000;13.684;2023-07-20T06:46:05;3.40;;;3.10;;
3349;SDS011;1688;51.000;13.684;2023-07-20T06:48:38;8.53;;;4.70;;
3349;SDS011;1688;51.000;13.684;2023-07-20T06:51:14;3.73;;;3.43;;
3349;SDS011;1688;51.000;13.684;2023-07-20T06:53:49;5.93;;;4.80;;
3349;SDS011;1688;51.000;13.684;2023-07-20T06:56:25;8.23;;;5.30;;
3349;SDS011;1688;51.000;13.684;2023-07-20T06:59:00;5.80;;;4.40;;
3349;SDS011;1688;51.000;13.684;2023-07-20T07:01:37;8.83;;;5.57;;
3349;SDS011;1688;51.000;13.684;2023-07-20T07:04:11;7.50;;;5.87;;
3349;SDS011;1688;51.000;13.684;2023-07-20T07:06:44;8.13;;;6.07;;
3349;SDS011;1688;51.000;13.684;2023-07-20T07:09:18;10.10;;;5.60;;
3349;SDS011;1688;51.000;13.684;2023-07-20T07:11:51;7.13;;;6.17;;
3349;SDS011;1688;51.000;13.684;2023-07-20T07:14:25;7.13;;;6.27;;
3349;SDS011;1688;51.000;13.684;2023-07-20T07:16:59;10.27;;;6.63;;
3349;SDS011;1688;51.000;13.684;2023-07-20T07:19:36;10.43;;;6.30;;
3349;SDS011;1688;51.000;13.684;2023-07-20T07:22:14;8.37;;;6.00;;
3349;SDS011;1688;51.000;13.684;2023-07-20T07:24:47;6.53;;;5.70;;
3349;SDS011;1688;51.000;13.684;2023-07-20T07:27:20;7.10;;;6.40;;
3349;SDS011;1688;51.000;13.684;2023-07-20T07:29:54;8.33;;;6.27;;
3349;SDS011;1688;51.000;13.684;2023-07-20T07:32:27;7.53;;;5.77;;
3349;SDS011;1688;51.000;13.684;2023-07-20T07:35:00;5.50;;;4.87;;
3349;SDS011;1688;51.000;13.684;2023-07-20T07:37:34;15.20;;;6.50;;
3349;SDS011;1688;51.000;13.684;2023-07-20T07:40:31;7.30;;;5.80;;
3349;SDS011;1688;51.000;13.684;2023-07-20T07:43:04;9.40;;;6.17;;
3349;SDS011;1688;51.000;13.684;2023-07-20T07:45:39;7.40;;;6.53;;
3349;SDS011;1688;51.000;13.684;2023-07-20T07:48:17;6.80;;;6.10;;
3349;SDS011;1688;51.000;13.684;2023-07-20T07:50:55;8.67;;;5.87;;
3349;SDS011;1688;51.000;13.684;2023-07-20T07:53:32;6.97;;;6.07;;
3349;SDS011;1688;51.000;13.684;2023-07-20T07:56:08;6.13;;;5.50;;
3349;SDS011;1688;51.000;13.684;2023-07-20T07:58:42;6.43;;;4.97;;
3349;SDS011;1688;51.000;13.684;2023-07-20T08:01:15;5.77;;;5.00;;
3349;SDS011;1688;51.000;13.684;2023-07-20T08:03:49;5.40;;;4.83;;
3349;SDS011;1688;51.000;13.684;2023-07-20T08:06:23;4.90;;;4.50;;
3349;SDS011;1688;51.000;13.684;2023-07-20T08:08:57;6.63;;;5.97;;
3349;SDS011;1688;51.000;13.684;2023-07-20T08:11:30;5.73;;;4.70;;
3349;SDS011;1688;51.000;13.684;2023-07-20T08:14:08;6.30;;;5.63;;
3349;SDS011;1688;51.000;13.684;2023-07-20T08:16:46;9.20;;;5.93;;
3349;SDS011;1688;51.000;13.684;2023-07-20T08:19:21;6.60;;;5.53;;
3349;SDS011;1688;51.000;13.684;2023-07-20T08:21:58;8.73;;;7.07;;
3349;SDS011;1688;51.000;13.684;2023-07-20T08:24:33;10.60;;;7.53;;
3349;SDS011;1688;51.000;13.684;2023-07-20T08:27:06;8.70;;;6.30;;
3349;SDS011;1688;51.000;13.684;2023-07-20T08:29:40;6.47;;;5.87;;
3349;SDS011;1688;51.000;13.684;2023-07-20T08:32:14;6.40;;;5.60;;
3349;SDS011;1688;51.000;13.684;2023-07-20T08:34:47;8.60;;;6.43;;
3349;SDS011;1688;51.000;13.684;2023-07-20T08:37:21;6.73;;;5.13;;
3349;SDS011;1688;51.000;13.684;2023-07-20T08:39:54;8.73;;;5.83;;
3349;SDS011;1688;51.000;13.684;2023-07-20T08:42:27;6.10;;;5.50;;
3349;SDS011;1688;51.000;13.684;2023-07-20T08:45:03;5.20;;;4.60;;
3349;SDS011;1688;51.000;13.684;2023-07-20T08:47:39;5.57;;;4.93;;
3349;SDS011;1688;51.000;13.684;2023-07-20T08:50:14;5.33;;;3.60;;
3349;SDS011;1688;51.000;13.684;2023-07-20T08:52:48;4.60;;;3.97;;
3349;SDS011;1688;51.000;13.684;2023-07-20T08:55:21;5.27;;;4.50;;
3349;SDS011;1688;51.000;13.684;2023-07-20T08:57:55;7.87;;;5.43;;
3349;SDS011;1688;51.000;13.684;2023-07-20T09:00:29;5.33;;;4.80;;
3349;SDS011;1688;51.000;13.684;2023-07-20T09:03:02;5.90;;;5.30;;
3349;SDS011;1688;51.000;13.684;2023-07-20T09:05:36;4.40;;;3.93;;
3349;SDS011;1688;51.000;13.684;2023-07-20T09:08:12;9.50;;;4.47;;
3349;SDS011;1688;51.000;13.684;2023-07-20T09:10:45;5.40;;;4.33;;
3349;SDS011;1688;51.000;13.684;2023-07-20T09:13:19;8.30;;;4.30;;
3349;SDS011;1688;51.000;13.684;2023-07-20T09:15:53;6.97;;;5.90;;
3349;SDS011;1688;51.000;13.684;2023-07-20T09:18:27;7.83;;;5.20;;
3349;SDS011;1688;51.000;13.684;2023-07-20T09:21:01;6.57;;;5.07;;
3349;SDS011;1688;51.000;13.684;2023-07-20T09:23:36;6.90;;;5.53;;
3349;SDS011;1688;51.000;13.684;2023-07-20T09:26:12;6.57;;;5.80;;
3349;SDS011;1688;51.000;13.684;2023-07-20T09:28:51;6.27;;;5.27;;
3349;SDS011;1688;51.000;13.684;2023-07-20T09:31:26;8.73;;;5.00;;
3349;SDS011;1688;51.000;13.684;2023-07-20T09:34:11;7.70;;;5.00;;
3349;SDS011;1688;51.000;13.684;2023-07-20T09:37:05;7.40;;;6.60;;
3349;SDS011;1688;51.000;13.684;2023-07-20T09:39:43;5.63;;;4.90;;
3349;SDS011;1688;51.000;13.684;2023-07-20T09:42:36;7.80;;;5.87;;
3349;SDS011;1688;51.000;13.684;2023-07-20T09:45:10;5.30;;;4.60;;
3349;SDS011;1688;51.000;13.684;2023-07-20T09:47:44;5.63;;;5.03;;
3349;SDS011;1688;51.000;13.684;2023-07-20T09:50:41;4.97;;;4.47;;
3349;SDS011;1688;51.000;13.684;2023-07-20T09:53:15;4.97;;;4.47;;
3349;SDS011;1688;51.000;13.684;2023-07-20T09:55:50;8.80;;;4.33;;
3349;SDS011;1688;51.000;13.684;2023-07-20T09:58:23;3.33;;;3.00;;
3349;SDS011;1688;51.000;13.684;2023-07-20T10:00:58;3.30;;;3.00;;
3349;SDS011;1688;51.000;13.684;2023-07-20T10:03:36;4.40;;;3.60;;
3349;SDS011;1688;51.000;13.684;2023-07-20T10:06:11;4.23;;;3.50;;
3349;SDS011;1688;51.000;13.684;2023-07-20T10:08:46;6.67;;;3.03;;
3349;SDS011;1688;51.000;13.684;2023-07-20T10:11:23;3.73;;;3.43;;
3349;SDS011;1688;51.000;13.684;2023-07-20T10:13:58;2.50;;;2.30;;
3349;SDS011;1688;51.000;13.684;2023-07-20T10:16:34;4.30;;;2.53;;
3349;SDS011;1688;51.000;13.684;2023-07-20T10:21:51;2.60;;;2.40;;
3349;SDS011;1688;51.000;13.684;2023-07-20T10:24:30;6.80;;;2.50;;
3349;SDS011;1688;51.000;13.684;2023-07-20T10:27:04;5.00;;;3.63;;
3349;SDS011;1688;51.000;13.684;2023-07-20T10:29:38;3.60;;;3.30;;
3349;SDS011;1688;51.000;13.684;2023-07-20T10:32:11;5.17;;;3.57;;
3349;SDS011;1688;51.000;13.684;2023-07-20T10:34:52;5.33;;;4.83;;
3349;SDS011;1688;51.000;13.684;2023-07-20T10:40:38;8.07;;;5.33;;
3349;SDS011;1688;51.000;13.684;2023-07-20T10:43:11;5.50;;;4.93;;
3349;SDS011;1688;51.000;13.684;2023-07-20T10:45:48;5.10;;;4.20;;
3349;SDS011;1688;51.000;13.684;2023-07-20T10:48:23;6.07;;;4.80;;
3349;SDS011;1688;51.000;13.684;2023-07-20T10:51:19;4.63;;;4.23;;
3349;SDS011;1688;51.000;13.684;2023-07-20T10:53:56;6.20;;;4.13;;
3349;SDS011;1688;51.000;13.684;2023-07-20T10:56:31;4.00;;;3.60;;
3349;SDS011;1688;51.000;13.684;2023-07-20T10:59:17;7.67;;;5.90;;
3349;SDS011;1688;51.000;13.684;2023-07-20T11:01:57;6.80;;;6.00;;
3349;SDS011;1688;51.000;13.684;2023-07-20T11:04:40;5.40;;;4.90;;
3349;SDS011;1688;51.000;13.684;2023-07-20T11:07:17;5.20;;;4.83;;
3349;SDS011;1688;51.000;13.684;2023-07-20T11:10:14;7.83;;;6.00;;
3349;SDS011;1688;51.000;13.684;2023-07-20T11:15:48;4.37;;;4.00;;
3349;SDS011;1688;51.000;13.684;2023-07-20T11:18:34;6.37;;;5.67;;
3349;SDS011;1688;51.000;13.684;2023-07-20T11:21:13;7.40;;;6.63;;
3349;SDS011;1688;51.000;13.684;2023-07-20T11:23:48;6.60;;;5.40;;
3349;SDS011;1688;51.000;13.684;2023-07-20T11:26:21;7.90;;;6.57;;
3349;SDS011;1688;51.000;13.684;2023-07-20T11:28:54;6.77;;;5.20;;
3349;SDS011;1688;51.000;13.684;2023-07-20T11:31:28;8.27;;;7.00;;
3349;SDS011;1688;51.000;13.684;2023-07-20T11:34:02;8.27;;;7.43;;
3349;SDS011;1688;51.000;13.684;2023-07-20T11:36:39;9.43;;;7.00;;
3349;SDS011;1688;51.000;13.684;2023-07-20T11:39:17;8.83;;;6.40;;
3349;SDS011;1688;51.000;13.684;2023-07-20T11:41:56;9.10;;;7.50;;
3349;SDS011;1688;51.000;13.684;2023-07-20T11:44:32;9.77;;;8.77;;
3349;SDS011;1688;51.000;13.684;2023-07-20T11:50:38;9.57;;;8.13;;
3349;SDS011;1688;51.000;13.684;2023-07-20T11:53:12;8.00;;;7.20;;
3349;SDS011;1688;51.000;13.684;2023-07-20T11:55:47;11.57;;;6.37;;
3349;SDS011;1688;51.000;13.684;2023-07-20T11:58:47;8.73;;;7.17;;
3349;SDS011;1688;51.000;13.684;2023-07-20T12:01:26;8.17;;;7.00;;
3349;SDS011;1688;51.000;13.684;2023-07-20T12:04:13;8.60;;;6.77;;
3349;SDS011;1688;51.000;13.684;2023-07-20T12:07:12;7.37;;;6.20;;
3349;SDS011;1688;51.000;13.684;2023-07-20T12:10:02;7.37;;;6.63;;
3349;SDS011;1688;51.000;13.684;2023-07-20T12:12:43;6.40;;;5.80;;
3349;SDS011;1688;51.000;13.684;2023-07-20T12:15:30;6.43;;;5.73;;
3349;SDS011;1688;51.000;13.684;2023-07-20T12:18:07;6.97;;;6.27;;
3349;SDS011;1688;51.000;13.684;2023-07-20T12:20:41;9.10;;;6.30;;
3349;SDS011;1688;51.000;13.684;2023-07-20T12:23:15;5.90;;;5.23;;
3349;SDS011;1688;51.000;13.684;2023-07-20T12:25:49;6.90;;;5.13;;
3349;SDS011;1688;51.000;13.684;2023-07-20T12:28:24;3.87;;;3.27;;
3349;SDS011;1688;51.000;13.684;2023-07-20T12:30:58;5.57;;;3.90;;
3349;SDS011;1688;51.000;13.684;2023-07-20T12:33:32;5.33;;;4.83;;
3349;SDS011;1688;51.000;13.684;2023-07-20T12:36:05;10.30;;;5.07;;
3349;SDS011;1688;51.000;13.684;2023-07-20T12:38:39;6.47;;;5.40;;
3349;SDS011;1688;51.000;13.684;2023-07-20T12:41:14;6.80;;;6.20;;
3349;SDS011;1688;51.000;13.684;2023-07-20T12:43:47;6.70;;;6.00;;
3349;SDS011;1688;51.000;13.684;2023-07-20T12:46:22;5.53;;;4.80;;
3349;SDS011;1688;51.000;13.684;2023-07-20T12:48:56;1.67;;;1.43;;
3349;SDS011;1688;51.000;13.684;2023-07-20T12:51:29;0.60;;;0.50;;
3349;SDS011;1688;51.000;13.684;2023-07-20T12:54:02;0.60;;;0.50;;
3349;SDS011;1688;51.000;13.684;2023-07-20T12:56:36;0.60;;;0.40;;
3349;SDS011;1688;51.000;13.684;2023-07-20T12:59:12;0.60;;;0.50;;
3349;SDS011;1688;51.000;13.684;2023-07-20T13:01:45;0.60;;;0.40;;
3349;SDS011;1688;51.000;13.684;2023-07-20T13:04:19;0.60;;;0.47;;
3349;SDS011;1688;51.000;13.684;2023-07-20T13:06:52;0.60;;;0.40;;
3349;SDS011;1688;51.000;13.684;2023-07-20T13:09:26;0.60;;;0.40;;
3349;SDS011;1688;51.000;13.684;2023-07-20T13:12:00;0.60;;;0.40;;
3349;SDS011;1688;51.000;13.684;2023-07-20T13:14:33;0.60;;;0.50;;
3349;SDS011;1688;51.000;13.684;2023-07-20T13:17:07;0.60;;;0.40;;
3349;SDS011;1688;51.000;13.684;2023-07-20T13:19:43;0.60;;;0.40;;
3349;SDS011;1688;51.000;13.684;2023-07-20T13:22:17;0.60;;;0.40;;
3349;SDS011;1688;51.000;13.684;2023-07-20T13:24:52;0.60;;;0.40;;
3349;SDS011;1688;51.000;13.684;2023-07-20T13:27:26;0.60;;;0.50;;
3349;SDS011;1688;51.000;13.684;2023-07-20T13:29:59;0.60;;;0.40;;
3349;SDS011;1688;51.000;13.684;2023-07-20T13:32:45;0.60;;;0.40;;
3349;SDS011;1688;51.000;13.684;2023-07-20T13:35:18;0.60;;;0.40;;
3349;SDS011;1688;51.000;13.684;2023-07-20T13:37:52;0.60;;;0.50;;
3349;SDS011;1688;51.000;13.684;2023-07-20T13:40:25;0.60;;;0.40;;
3349;SDS011;1688;51.000;13.684;2023-07-20T13:43:02;0.60;;;0.40;;
3349;SDS011;1688;51.000;13.684;2023-07-20T13:45:38;0.60;;;0.40;;
3349;SDS011;1688;51.000;13.684;2023-07-20T13:48:11;0.60;;;0.40;;
3349;SDS011;1688;51.000;13.684;2023-07-20T13:50:49;0.60;;;0.40;;
3349;SDS011;1688;51.000;13.684;2023-07-20T13:53:26;0.60;;;0.50;;
3349;SDS011;1688;51.000;13.684;2023-07-20T13:56:03;0.60;;;0.47;;
3349;SDS011;1688;51.000;13.684;2023-07-20T13:58:39;0.60;;;0.40;;
3349;SDS011;1688;51.000;13.684;2023-07-20T14:01:13;0.60;;;0.40;;
3349;SDS011;1688;51.000;13.684;2023-07-20T14:04:01;0.60;;;0.40;;
3349;SDS011;1688;51.000;13.684;2023-07-20T14:06:36;0.60;;;0.40;;
3349;SDS011;1688;51.000;13.684;2023-07-20T14:09:10;0.60;;;0.40;;
3349;SDS011;1688;51.000;13.684;2023-07-20T14:11:43;0.60;;;0.40;;
3349;SDS011;1688;51.000;13.684;2023-07-20T14:14:19;0.90;;;0.90;;
3349;SDS011;1688;51.000;13.684;2023-07-20T14:16:53;0.60;;;0.50;;
3349;SDS011;1688;51.000;13.684;2023-07-20T14:19:26;0.60;;;0.50;;
3349;SDS011;1688;51.000;13.684;2023-07-20T14:21:59;0.60;;;0.50;;
3349;SDS011;1688;51.000;13.684;2023-07-20T14:24:33;0.60;;;0.50;;
3349;SDS011;1688;51.000;13.684;2023-07-20T14:27:06;0.60;;;0.50;;
3349;SDS011;1688;51.000;13.684;2023-07-20T14:29:39;0.60;;;0.50;;
3349;SDS011;1688;51.000;13.684;2023-07-20T14:32:12;0.63;;;0.53;;
3349;SDS011;1688;51.000;13.684;2023-07-20T14:34:46;0.60;;;0.50;;
3349;SDS011;1688;51.000;13.684;2023-07-20T14:37:19;0.60;;;0.50;;
3349;SDS011;1688;51.000;13.684;2023-07-20T14:39:53;0.60;;;0.50;;
3349;SDS011;1688;51.000;13.684;2023-07-20T14:42:26;0.60;;;0.60;;
3349;SDS011;1688;51.000;13.684;2023-07-20T14:45:00;0.60;;;0.50;;
3349;SDS011;1688;51.000;13.684;2023-07-20T14:47:33;0.60;;;0.50;;
3349;SDS011;1688;51.000;13.684;2023-07-20T14:50:08;0.60;;;0.50;;
3349;SDS011;1688;51.000;13.684;2023-07-20T14:52:41;0.60;;;0.50;;
3349;SDS011;1688;51.000;13.684;2023-07-20T14:55:17;0.60;;;0.50;;
3349;SDS011;1688;51.000;13.684;2023-07-20T14:57:50;0.60;;;0.50;;
3349;SDS011;1688;51.000;13.684;2023-07-20T15:00:24;0.60;;;0.50;;
3349;SDS011;1688;51.000;13.684;2023-07-20T15:02:57;0.60;;;0.47;;
3349;SDS011;1688;51.000;13.684;2023-07-20T15:05:31;0.60;;;0.50;;
3349;SDS011;1688;51.000;13.684;2023-07-20T15:08:05;0.60;;;0.40;;
3349;SDS011;1688;51.000;13.684;2023-07-20T15:10:38;0.60;;;0.50;;
3349;SDS011;1688;51.000;13.684;2023-07-20T15:13:12;3.53;;;1.40;;
3349;SDS011;1688;51.000;13.684;2023-07-20T15:15:45;4.07;;;2.90;;
3349;SDS011;1688;51.000;13.684;2023-07-20T15:18:20;2.70;;;2.00;;
3349;SDS011;1688;51.000;13.684;2023-07-20T15:21:13;3.27;;;2.80;;
3349;SDS011;1688;51.000;13.684;2023-07-20T15:23:46;2.70;;;2.50;;
3349;SDS011;1688;51.000;13.684;2023-07-20T15:26:19;2.90;;;2.57;;
3349;SDS011;1688;51.000;13.684;2023-07-20T15:28:53;2.97;;;2.47;;
3349;SDS011;1688;51.000;13.684;2023-07-20T15:31:27;2.87;;;2.67;;
3349;SDS011;1688;51.000;13.684;2023-07-20T15:34:03;7.73;;;3.20;;
3349;SDS011;1688;51.000;13.684;2023-07-20T15:36:36;3.13;;;2.80;;
3349;SDS011;1688;51.000;13.684;2023-07-20T15:39:09;3.93;;;2.80;;
3349;SDS011;1688;51.000;13.684;2023-07-20T15:41:42;5.30;;;3.60;;
3349;SDS011;1688;51.000;13.684;2023-07-20T15:44:16;4.17;;;3.20;;
3349;SDS011;1688;51.000;13.684;2023-07-20T15:46:49;4.73;;;2.93;;
3349;SDS011;1688;51.000;13.684;2023-07-20T15:49:23;2.60;;;2.40;;
3349;SDS011;1688;51.000;13.684;2023-07-20T15:51:57;3.17;;;2.60;;
3349;SDS011;1688;51.000;13.684;2023-07-20T15:54:31;2.33;;;2.13;;
3349;SDS011;1688;51.000;13.684;2023-07-20T15:57:04;2.13;;;2.03;;
3349;SDS011;1688;51.000;13.684;2023-07-20T15:59:38;3.03;;;2.70;;
3349;SDS011;1688;51.000;13.684;2023-07-20T16:02:11;3.53;;;2.00;;
3349;SDS011;1688;51.000;13.684;2023-07-20T16:04:45;1.60;;;1.50;;
3349;SDS011;1688;51.000;13.684;2023-07-20T16:07:25;2.63;;;2.43;;
3349;SDS011;1688;51.000;13.684;2023-07-20T16:09:59;2.73;;;2.53;;
3349;SDS011;1688;51.000;13.684;2023-07-20T16:12:34;1.90;;;1.67;;
3349;SDS011;1688;51.000;13.684;2023-07-20T16:15:08;2.30;;;1.87;;